createdAt,value
2018-06-17T00:00:00.487Z,100957.33
2018-06-17T00:02:05.267Z,100951.59
2018-06-17T00:04:10.297Z,100958.83
2018-06-17T00:06:15.196Z,100960.93
2018-06-17T00:08:20.291Z,100949.62
2018-06-17T00:10:25.379Z,100962.55
2018-06-17T00:12:30.146Z,100962.73
2018-06-17T00:14:34.970Z,100966.98
2018-06-17T00:16:39.797Z,100964.34
2018-06-17T00:18:44.559Z,100955.17
2018-06-17T00:20:49.255Z,100961.11
2018-06-17T00:22:54.009Z,100960.11
2018-06-17T00:24:58.684Z,100943.29
2018-06-17T00:27:03.573Z,100964.27
2018-06-17T00:29:08.381Z,100955.34
2018-06-17T00:31:13.198Z,100954.61
2018-06-17T00:33:18.222Z,100955.61
2018-06-17T00:35:22.932Z,100888.23
2018-06-17T00:37:27.509Z,100955.13
2018-06-17T00:39:32.238Z,100959.34
2018-06-17T00:41:37.165Z,100955.87
2018-06-17T00:43:42.034Z,100955.78
2018-06-17T00:45:47.009Z,100922.28
2018-06-17T00:47:51.945Z,100956.34
2018-06-17T00:49:56.805Z,100966.77
2018-06-17T00:52:01.482Z,100965.50
2018-06-17T00:54:06.827Z,100964.18
2018-06-17T00:56:11.694Z,100965.09
2018-06-17T00:58:16.645Z,100967.09
2018-06-17T01:00:23.109Z,100967.00
2018-06-17T01:02:28.108Z,100959.55
2018-06-17T01:04:33.013Z,100965.19
2018-06-17T01:06:37.841Z,100974.80
2018-06-17T01:08:42.501Z,100974.98
2018-06-17T01:10:47.151Z,100967.94
2018-06-17T01:12:51.961Z,100975.48
2018-06-17T01:14:56.807Z,100975.64
2018-06-17T01:17:01.648Z,100941.86
2018-06-17T01:19:06.310Z,100980.25
2018-06-17T01:21:11.735Z,100945.02
2018-06-17T01:23:16.619Z,100987.91
2018-06-17T01:25:21.539Z,100962.94
2018-06-17T01:27:26.310Z,100968.66
2018-06-17T01:29:31.190Z,100965.61
2018-06-17T01:31:36.038Z,100962.30
2018-06-17T01:33:40.954Z,100970.34
2018-06-17T01:35:45.714Z,100970.27
2018-06-17T01:37:50.560Z,100974.44
2018-06-17T01:39:55.719Z,100974.96
2018-06-17T01:42:00.599Z,100969.48
2018-06-17T01:44:05.438Z,100971.05
2018-06-17T01:46:10.139Z,100959.78
2018-06-17T01:48:14.852Z,100978.38
2018-06-17T01:50:19.564Z,100977.51
2018-06-17T01:52:24.294Z,100971.51
2018-06-17T01:54:29.156Z,100964.59
2018-06-17T01:56:33.882Z,100957.57
2018-06-17T01:58:38.581Z,100956.60
2018-06-17T02:00:43.251Z,100959.50
2018-06-17T02:02:47.982Z,100957.57
2018-06-17T02:04:57.826Z,100957.66
2018-06-17T02:07:07.589Z,100954.76
2018-06-17T02:09:17.584Z,100957.06
2018-06-17T02:11:27.455Z,100957.99
2018-06-17T02:13:32.264Z,100961.06
2018-06-17T02:15:37.017Z,100964.62
2018-06-17T02:17:41.760Z,100967.58
2018-06-17T02:19:46.576Z,100965.95
2018-06-17T02:21:51.267Z,100971.22
2018-06-17T02:23:55.993Z,100968.76
2018-06-17T02:26:00.657Z,100967.59
2018-06-17T02:28:05.531Z,100963.77
2018-06-17T02:30:10.190Z,100881.21
2018-06-17T02:32:15.130Z,100968.98
2018-06-17T02:34:19.792Z,100974.61
2018-06-17T02:36:24.502Z,100974.52
2018-06-17T02:38:29.212Z,100973.36
2018-06-17T02:40:33.911Z,100975.49
2018-06-17T02:42:39.546Z,100981.58
2018-06-17T02:44:44.205Z,100980.75
2018-06-17T02:46:54.000Z,100979.45
2018-06-17T02:49:03.840Z,100981.26
2018-06-17T02:51:13.475Z,100984.34
2018-06-17T02:53:23.206Z,100981.61
2018-06-17T02:55:27.924Z,100981.84
2018-06-17T02:57:32.663Z,100981.39
2018-06-17T02:59:37.498Z,100978.30
2018-06-17T03:01:42.306Z,100980.97
2018-06-17T03:03:47.137Z,100980.05
2018-06-17T03:05:51.962Z,100974.92
2018-06-17T03:07:56.691Z,100977.38
2018-06-17T03:10:02.206Z,100985.13
2018-06-17T03:12:07.483Z,100989.06
2018-06-17T03:14:12.143Z,100982.27
2018-06-17T03:16:16.977Z,100990.16
2018-06-17T03:18:21.726Z,100953.34
2018-06-17T03:20:26.439Z,100946.57
2018-06-17T03:22:31.136Z,100989.98
2018-06-17T03:24:40.841Z,100972.42
2018-06-17T03:26:50.598Z,100965.25
2018-06-17T03:29:00.228Z,100990.50
2018-06-17T03:31:10.195Z,100995.61
2018-06-17T03:33:20.029Z,100987.94
2018-06-17T03:35:29.741Z,100990.53
2018-06-17T03:37:34.477Z,100989.56
2018-06-17T03:39:39.242Z,100987.52
2018-06-17T03:41:43.912Z,100994.45
2018-06-17T03:43:49.565Z,101001.20
2018-06-17T03:45:54.357Z,100997.59
2018-06-17T03:47:59.288Z,100997.95
2018-06-17T03:50:04.341Z,100991.64
2018-06-17T03:52:09.199Z,101001.58
2018-06-17T03:54:14.051Z,101001.20
2018-06-17T03:56:19.136Z,101003.33
2018-06-17T03:58:24.172Z,100999.36
2018-06-17T04:00:29.004Z,101001.75
2018-06-17T04:02:35.162Z,101000.74
2018-06-17T04:04:44.972Z,101003.09
2018-06-17T04:06:59.466Z,101002.58
2018-06-17T04:09:05.362Z,101002.67
2018-06-17T04:11:10.164Z,100995.52
2018-06-17T04:13:14.794Z,100993.99
2018-06-17T04:15:19.365Z,100999.30
2018-06-17T04:17:24.596Z,100988.03
2018-06-17T04:19:29.457Z,100972.66
2018-06-17T04:21:34.070Z,100998.42
2018-06-17T04:23:38.711Z,100995.70
2018-06-17T04:25:43.549Z,101002.13
2018-06-17T04:27:48.298Z,100983.47
2018-06-17T04:29:52.996Z,100927.13
2018-06-17T04:31:57.633Z,101003.06
2018-06-17T04:34:02.295Z,101003.13
2018-06-17T04:36:07.246Z,100997.67
2018-06-17T04:38:11.579Z,100999.60
2018-06-17T04:40:16.258Z,100953.81
2018-06-17T04:42:20.932Z,101010.03
2018-06-17T04:44:25.652Z,101008.91
2018-06-17T04:46:30.356Z,101013.55
2018-06-17T04:48:35.053Z,101013.05
2018-06-17T04:50:39.680Z,101013.13
2018-06-17T04:52:44.353Z,101010.21
2018-06-17T04:54:48.983Z,101010.72
2018-06-17T04:56:53.633Z,101001.48
2018-06-17T04:58:58.346Z,101012.50
2018-06-17T05:01:03.014Z,101008.45
2018-06-17T05:03:07.670Z,100999.36
2018-06-17T05:05:12.638Z,101006.41
2018-06-17T05:07:17.255Z,101002.32
2018-06-17T05:09:21.934Z,101007.58
2018-06-17T05:11:26.614Z,100996.02
2018-06-17T05:13:31.205Z,101001.03
2018-06-17T05:15:35.825Z,101000.78
2018-06-17T05:17:40.605Z,100999.66
2018-06-17T05:19:45.314Z,101007.16
2018-06-17T05:21:49.998Z,100987.84
2018-06-17T05:23:54.708Z,101007.45
2018-06-17T05:25:59.355Z,101008.70
2018-06-17T05:28:04.052Z,100962.80
2018-06-17T05:30:08.764Z,101010.79
2018-06-17T05:32:13.678Z,101010.91
2018-06-17T05:34:18.447Z,101011.92
2018-06-17T05:36:23.316Z,101013.14
2018-06-17T05:38:27.967Z,101018.94
2018-06-17T05:40:32.637Z,101023.42
2018-06-17T05:42:37.330Z,101016.49
2018-06-17T05:44:42.060Z,101014.05
2018-06-17T05:46:46.736Z,101024.23
2018-06-17T05:48:51.680Z,101026.94
2018-06-17T05:50:56.479Z,101022.14
2018-06-17T05:53:01.088Z,101028.69
2018-06-17T05:55:05.858Z,101019.92
2018-06-17T05:57:11.116Z,101024.00
2018-06-17T05:59:16.324Z,101029.17
2018-06-17T06:01:21.124Z,101029.25
2018-06-17T06:03:25.951Z,101034.52
2018-06-17T06:05:31.126Z,101038.81
2018-06-17T06:07:36.035Z,101010.05
2018-06-17T06:09:40.808Z,101028.49
2018-06-17T06:11:45.519Z,101026.92
2018-06-17T06:13:50.289Z,101026.69
2018-06-17T06:15:55.075Z,101024.90
2018-06-17T06:17:59.950Z,101033.59
2018-06-17T06:20:05.053Z,101028.12
2018-06-17T06:22:09.801Z,101030.89
2018-06-17T06:24:14.469Z,101032.57
2018-06-17T06:26:19.351Z,101030.61
2018-06-17T06:28:24.335Z,101033.03
2018-06-17T06:30:29.109Z,101027.88
2018-06-17T06:32:34.794Z,101028.14
2018-06-17T06:34:39.554Z,101033.34
2018-06-17T06:36:44.421Z,101041.67
2018-06-17T06:38:49.814Z,101040.95
2018-06-17T06:40:54.586Z,101039.52
2018-06-17T06:42:59.317Z,101037.45
2018-06-17T06:45:04.096Z,101043.05
2018-06-17T06:47:08.722Z,101043.87
2018-06-17T06:49:13.431Z,101045.19
2018-06-17T06:51:18.159Z,101035.90
2018-06-17T06:53:22.533Z,101042.59
2018-06-17T06:55:27.300Z,101037.30
2018-06-17T06:57:32.996Z,101042.88
2018-06-17T06:59:37.661Z,101039.66
2018-06-17T07:01:58.812Z,101034.08
2018-06-17T07:04:20.126Z,101049.46
2018-06-17T07:06:41.235Z,101050.73
2018-06-17T07:11:07.723Z,101054.20
2018-06-17T07:13:12.568Z,101062.98
2018-06-17T07:15:19.134Z,101072.89
2018-06-17T07:17:40.989Z,101048.46
2018-06-17T07:19:45.807Z,101079.50
2018-06-17T07:21:50.705Z,101078.63
2018-06-17T07:23:55.559Z,101078.23
2018-06-17T07:26:46.751Z,101083.88
2018-06-17T07:29:08.358Z,101083.57
2018-06-17T07:31:13.165Z,101081.48
2018-06-17T07:33:17.994Z,101089.63
2018-06-17T07:35:22.845Z,101086.02
2018-06-17T07:37:27.576Z,101089.95
2018-06-17T07:41:46.134Z,101082.65
2018-06-17T07:43:51.056Z,101071.49
2018-06-17T07:45:55.763Z,101092.50
2018-06-17T07:48:00.934Z,101093.81
2018-06-17T07:50:22.282Z,101094.95
2018-06-17T07:52:43.626Z,101109.62
2018-06-17T07:54:48.824Z,101099.72
2018-06-17T07:56:53.776Z,101104.35
2018-06-17T07:58:58.554Z,101108.61
2018-06-17T08:01:03.373Z,101099.43
2018-06-17T08:03:08.163Z,101099.43
2018-06-17T08:05:13.085Z,101091.02
2018-06-17T08:07:17.796Z,101086.38
2018-06-17T08:09:23.000Z,101031.37
2018-06-17T08:11:27.738Z,101104.42
2018-06-17T08:13:32.494Z,101101.70
2018-06-17T08:15:37.365Z,101103.40
2018-06-17T08:17:42.213Z,101112.28
2018-06-17T08:19:47.020Z,101096.42
2018-06-17T08:21:53.006Z,101101.69
2018-06-17T08:23:57.911Z,101114.09
2018-06-17T08:26:02.825Z,101114.85
2018-06-17T08:28:07.840Z,101098.35
2018-06-17T08:30:12.693Z,101106.84
2018-06-17T08:32:17.585Z,101106.84
2018-06-17T08:34:22.577Z,101100.59
2018-06-17T08:36:27.367Z,101102.80
2018-06-17T08:38:32.116Z,101074.91
2018-06-17T08:40:37.001Z,101095.61
2018-06-17T08:42:41.892Z,101099.70
2018-06-17T08:44:46.812Z,101099.90
2018-06-17T08:46:52.119Z,101100.83
2018-06-17T08:48:57.036Z,101092.39
2018-06-17T08:51:01.888Z,101088.61
2018-06-17T08:53:06.920Z,101097.52
2018-06-17T08:55:11.829Z,101088.60
2018-06-17T08:57:16.732Z,101091.26
2018-06-17T08:59:22.699Z,101096.22
2018-06-17T09:01:28.369Z,101038.88
2018-06-17T09:03:33.355Z,101093.52
2018-06-17T09:05:38.274Z,101091.23
2018-06-17T09:07:43.354Z,101075.78
2018-06-17T09:09:48.183Z,101088.95
2018-06-17T09:11:53.015Z,101092.00
2018-06-17T09:13:57.841Z,101095.50
2018-06-17T09:16:02.925Z,101095.19
2018-06-17T09:18:07.831Z,101097.05
2018-06-17T09:20:13.026Z,101094.61
2018-06-17T09:22:17.892Z,101097.60
2018-06-17T09:24:22.764Z,101093.25
2018-06-17T09:26:27.596Z,101092.80
2018-06-17T09:28:32.696Z,101088.13
2018-06-17T09:30:37.560Z,101092.22
2018-06-17T09:32:42.468Z,101090.44
2018-06-17T09:34:47.378Z,101079.14
2018-06-17T09:36:52.254Z,101103.28
2018-06-17T09:38:57.023Z,101085.60
2018-06-17T09:41:01.865Z,101087.33
2018-06-17T09:43:06.733Z,101072.72
2018-06-17T09:45:11.507Z,101106.51
2018-06-17T09:47:16.268Z,101102.59
2018-06-17T09:49:21.304Z,101087.47
2018-06-17T09:51:26.213Z,101098.53
2018-06-17T09:53:31.002Z,101096.17
2018-06-17T09:55:35.963Z,101099.67
2018-06-17T09:57:40.821Z,101108.73
2018-06-17T09:59:45.631Z,101103.46
2018-06-17T10:01:50.505Z,101117.91
2018-06-17T10:03:55.366Z,101097.81
2018-06-17T10:06:00.109Z,101114.77
2018-06-17T10:08:04.963Z,101100.52
2018-06-17T10:10:54.851Z,101109.03
2018-06-17T10:12:59.705Z,101082.36
2018-06-17T10:15:04.555Z,101103.78
2018-06-17T10:17:09.445Z,101104.39
2018-06-17T10:19:14.504Z,101106.56
2018-06-17T10:21:20.294Z,101106.06
2018-06-17T10:23:25.381Z,101110.78
2018-06-17T10:25:30.153Z,101107.01
2018-06-17T10:27:34.993Z,101104.26
2018-06-17T10:29:39.873Z,101104.44
2018-06-17T10:31:44.851Z,101114.81
2018-06-17T10:33:49.751Z,101122.23
2018-06-17T10:35:54.736Z,101095.98
2018-06-17T10:37:59.673Z,101116.06
2018-06-17T10:40:04.590Z,101128.63
2018-06-17T10:42:09.375Z,101120.26
2018-06-17T10:44:14.255Z,101124.53
2018-06-17T10:46:19.042Z,101127.63
2018-06-17T10:48:23.951Z,101127.30
2018-06-17T10:50:28.832Z,101132.63
2018-06-17T10:52:33.828Z,101132.16
2018-06-17T10:54:38.847Z,101123.93
2018-06-17T10:56:43.657Z,101126.30
2018-06-17T10:58:48.447Z,101142.01
2018-06-17T11:00:53.316Z,101132.49
2018-06-17T11:02:58.144Z,101132.52
2018-06-17T11:05:03.108Z,101130.99
2018-06-17T11:07:08.031Z,101133.93
2018-06-17T11:09:13.452Z,101137.57
2018-06-17T11:11:18.543Z,101136.32
2018-06-17T11:13:23.310Z,101134.66
2018-06-17T11:15:28.707Z,101141.95
2018-06-17T11:17:33.605Z,101144.73
2018-06-17T11:19:38.665Z,101144.23
2018-06-17T11:21:43.556Z,101140.19
2018-06-17T11:23:48.977Z,101147.20
2018-06-17T11:25:53.999Z,101146.12
2018-06-17T11:27:58.995Z,101140.08
2018-06-17T11:30:04.156Z,101145.19
2018-06-17T11:32:09.516Z,101142.88
2018-06-17T11:34:14.793Z,101133.63
2018-06-17T11:36:20.036Z,101143.88
2018-06-17T11:38:25.233Z,101154.26
2018-06-17T11:40:30.610Z,101154.42
2018-06-17T11:42:35.670Z,101143.09
2018-06-17T11:44:41.303Z,101146.01
2018-06-17T11:46:46.659Z,101153.83
2018-06-17T11:48:51.960Z,101116.31
2018-06-17T11:51:03.556Z,101142.98
2018-06-17T11:53:09.508Z,101154.28
2018-06-17T11:55:14.586Z,101138.59
2018-06-17T11:57:19.842Z,101157.50
2018-06-17T11:59:25.058Z,101151.09
2018-06-17T12:01:30.020Z,101154.11
2018-06-17T12:03:34.943Z,101156.60
2018-06-17T12:05:41.628Z,101150.86
2018-06-17T12:07:47.074Z,101153.01
2018-06-17T12:10:04.548Z,101160.14
2018-06-17T12:12:09.661Z,101160.80
2018-06-17T12:14:14.597Z,101140.55
2018-06-17T12:16:19.629Z,101169.70
2018-06-17T12:18:24.620Z,101166.89
2018-06-17T12:20:29.568Z,101158.26
2018-06-17T12:22:34.708Z,101105.61
2018-06-17T12:24:39.718Z,101176.69
2018-06-17T12:26:44.898Z,101181.70
2018-06-17T12:28:50.259Z,101161.13
2018-06-17T12:30:55.658Z,101176.08
2018-06-17T12:33:01.539Z,101179.33
2018-06-17T12:35:06.628Z,101052.63
2018-06-17T12:37:12.774Z,101117.89
2018-06-17T12:39:17.650Z,101183.10
2018-06-17T12:41:22.708Z,101138.95
2018-06-17T12:43:27.909Z,101175.48
2018-06-17T12:45:32.909Z,101173.77
2018-06-17T12:47:37.831Z,101160.98
2018-06-17T12:49:42.866Z,101184.19
2018-06-17T12:51:48.176Z,101184.97
2018-06-17T12:53:53.203Z,101186.39
2018-06-17T12:55:58.343Z,101181.80
2018-06-17T12:58:03.333Z,101184.25
2018-06-17T13:00:08.625Z,101151.59
2018-06-17T13:02:13.551Z,101188.69
2018-06-17T13:04:19.481Z,101182.10
2018-06-17T13:06:24.799Z,101186.78
2018-06-17T13:08:29.945Z,101148.91
2018-06-17T13:10:36.051Z,101187.59
2018-06-17T13:12:43.070Z,101186.55
2018-06-17T13:14:49.484Z,101182.28
2018-06-17T13:16:57.443Z,101181.80
2018-06-17T13:19:03.209Z,101184.91
2018-06-17T13:21:09.513Z,101173.98
2018-06-17T13:23:14.698Z,101185.91
2018-06-17T13:25:19.888Z,101182.52
2018-06-17T13:27:24.906Z,101180.52
2018-06-17T13:29:30.082Z,101188.44
2018-06-17T13:31:35.000Z,101196.83
2018-06-17T13:33:39.864Z,101198.41
2018-06-17T13:35:44.823Z,101190.46
2018-06-17T13:37:50.156Z,101192.16
2018-06-17T13:39:55.093Z,101195.95
2018-06-17T13:42:00.241Z,101200.84
2018-06-17T13:44:05.254Z,101200.36
2018-06-17T13:46:10.404Z,101207.98
2018-06-17T13:48:15.889Z,101210.59
2018-06-17T13:50:23.523Z,101215.19
2018-06-17T13:52:28.850Z,101201.62
2018-06-17T13:54:33.693Z,101201.20
2018-06-17T13:56:38.752Z,101200.90
2018-06-17T13:58:43.906Z,101213.64
2018-06-17T14:00:50.800Z,101206.73
2018-06-17T14:02:55.716Z,101138.05
2018-06-17T14:05:00.569Z,101212.50
2018-06-17T14:07:05.493Z,101213.47
2018-06-17T14:09:11.184Z,101210.39
2018-06-17T14:11:16.244Z,101207.91
2018-06-17T14:13:21.444Z,101218.12
2018-06-17T14:15:26.398Z,101209.20
2018-06-17T14:17:31.393Z,101214.17
2018-06-17T14:19:36.303Z,101228.06
2018-06-17T14:21:41.296Z,101199.63
2018-06-17T14:23:46.482Z,101214.47
2018-06-17T14:25:51.441Z,101225.02
2018-06-17T14:27:56.912Z,101218.20
2018-06-17T14:30:01.783Z,101212.68
2018-06-17T14:32:06.948Z,101221.41
2018-06-17T14:34:11.748Z,101215.89
2018-06-17T14:36:16.763Z,101218.12
2018-06-17T14:38:21.703Z,101223.02
2018-06-17T14:40:27.717Z,101221.92
2018-06-17T14:42:37.979Z,101217.88
2018-06-17T14:44:50.302Z,101221.28
2018-06-17T14:47:00.205Z,101222.63
2018-06-17T14:49:10.291Z,101219.70
2018-06-17T14:51:20.159Z,101222.51
2018-06-17T14:53:27.086Z,101223.81
2018-06-17T14:55:33.199Z,101221.27
2018-06-17T14:57:38.715Z,101223.41
2018-06-17T14:59:44.810Z,101241.52
2018-06-17T15:01:49.799Z,101231.45
2018-06-17T15:03:54.962Z,101232.48
2018-06-17T15:06:00.021Z,101223.84
2018-06-17T15:08:04.930Z,101229.47
2018-06-17T15:10:10.073Z,101223.92
2018-06-17T15:12:15.774Z,101226.77
2018-06-17T15:14:20.689Z,101227.89
2018-06-17T15:16:25.706Z,101236.36
2018-06-17T15:18:32.832Z,101235.28
2018-06-17T15:20:37.721Z,101230.57
2018-06-17T15:22:44.481Z,101232.14
2018-06-17T15:24:49.940Z,101226.44
2018-06-17T15:26:55.061Z,101222.22
2018-06-17T15:29:00.274Z,101152.27
2018-06-17T15:31:10.351Z,101229.85
2018-06-17T15:33:20.252Z,101228.91
2018-06-17T15:35:30.297Z,101227.30
2018-06-17T15:37:40.556Z,101237.92
2018-06-17T15:39:53.267Z,101233.89
2018-06-17T15:41:58.404Z,101229.95
2018-06-17T15:44:03.744Z,101226.72
2018-06-17T15:46:09.816Z,101226.47
2018-06-17T15:48:17.577Z,101232.81
2018-06-17T15:50:23.063Z,101213.66
2018-06-17T15:52:28.238Z,101224.98
2018-06-17T15:54:33.228Z,101220.88
2018-06-17T15:56:40.152Z,101138.80
2018-06-17T15:58:45.177Z,101211.83
2018-06-17T16:00:50.495Z,101216.70
2018-06-17T16:02:55.415Z,101209.92
2018-06-17T16:05:00.516Z,101215.55
2018-06-17T16:07:05.483Z,101216.16
2018-06-17T16:09:12.143Z,101175.47
2018-06-17T16:11:17.228Z,101219.23
2018-06-17T16:13:27.373Z,101207.61
2018-06-17T16:15:37.351Z,101211.84
2018-06-17T16:17:50.975Z,101218.90
2018-06-17T16:20:01.265Z,101210.33
2018-06-17T16:22:11.826Z,101218.06
2018-06-17T16:24:19.058Z,101197.58
2018-06-17T16:26:24.019Z,101226.95
2018-06-17T16:28:29.585Z,101228.74
2018-06-17T16:30:34.529Z,101228.31
2018-06-17T16:32:39.505Z,101233.30
2018-06-17T16:34:44.404Z,101227.98
2018-06-17T16:36:49.334Z,101227.86
2018-06-17T16:38:54.208Z,101222.49
2018-06-17T16:40:59.189Z,101232.19
2018-06-17T16:43:04.084Z,101235.09
2018-06-17T16:45:09.093Z,101242.84
2018-06-17T16:47:14.285Z,101239.80
2018-06-17T16:49:19.185Z,101243.77
2018-06-17T16:51:29.075Z,101243.86
2018-06-17T16:53:39.093Z,101196.02
2018-06-17T16:55:49.043Z,101216.75
2018-06-17T16:57:59.064Z,101184.02
2018-06-17T17:00:08.136Z,101258.13
2018-06-17T17:02:13.131Z,101230.44
2018-06-17T17:04:17.914Z,101253.21
2018-06-17T17:06:22.812Z,101256.17
2018-06-17T17:08:27.759Z,101259.73
2018-06-17T17:10:33.539Z,101259.12
2018-06-17T17:12:38.463Z,101265.03
2018-06-17T17:14:45.518Z,101225.12
2018-06-17T17:16:50.782Z,101259.77
2018-06-17T17:18:56.116Z,101264.48
2018-06-17T17:21:01.886Z,101250.81
2018-06-17T17:23:06.918Z,101264.93
2018-06-17T17:25:12.518Z,101233.34
2018-06-17T17:27:18.152Z,101271.35
2018-06-17T17:29:24.014Z,101277.02
2018-06-17T17:31:33.230Z,101279.66
2018-06-17T17:33:43.281Z,101284.01
2018-06-17T17:35:53.691Z,101149.53
2018-06-17T17:38:04.932Z,101287.72
2018-06-17T17:40:15.530Z,101273.48
2018-06-17T17:42:21.370Z,101275.23
2018-06-17T17:44:26.693Z,101267.70
2018-06-17T17:47:34.317Z,101264.61
2018-06-17T17:49:39.227Z,101261.83
2018-06-17T17:51:44.269Z,101266.43
2018-06-17T17:53:49.247Z,101262.70
2018-06-17T17:55:54.227Z,101268.80
2018-06-17T17:57:59.311Z,101269.21
2018-06-17T18:00:04.515Z,101263.95
2018-06-17T18:02:09.623Z,101269.78
2018-06-17T18:04:14.486Z,101270.72
2018-06-17T18:06:19.444Z,101267.42
2018-06-17T18:08:24.405Z,101273.84
2018-06-17T18:10:29.412Z,101270.44
2018-06-17T18:12:34.804Z,101276.38
2018-06-17T18:14:39.893Z,101279.46
2018-06-17T18:16:45.038Z,101280.49
2018-06-17T18:18:49.835Z,101259.45
2018-06-17T18:20:55.258Z,101234.69
2018-06-17T18:23:00.248Z,101276.97
2018-06-17T18:25:10.713Z,101273.11
2018-06-17T18:27:21.286Z,101272.95
2018-06-17T18:29:31.176Z,101267.06
2018-06-17T18:31:41.273Z,101264.44
2018-06-17T18:33:51.025Z,101258.99
2018-06-17T18:36:01.187Z,101266.77
2018-06-17T18:38:06.439Z,101269.48
2018-06-17T18:40:11.590Z,101269.34
2018-06-17T18:42:17.674Z,101269.34
2018-06-17T18:44:23.015Z,101270.72
2018-06-17T18:46:28.368Z,101260.93
2018-06-17T18:48:33.722Z,101276.02
2018-06-17T18:50:39.313Z,101265.23
2018-06-17T18:52:44.296Z,101254.19
2018-06-17T18:54:49.880Z,101260.45
2018-06-17T18:59:05.661Z,101276.31
2018-06-17T19:01:11.600Z,101277.14
2018-06-17T19:03:16.910Z,101276.26
2018-06-17T19:05:25.263Z,101282.77
2018-06-17T19:07:30.472Z,101276.05
2018-06-17T19:09:44.333Z,101284.86
2018-06-17T19:11:54.706Z,101281.69
2018-06-17T19:14:11.143Z,101281.69
2018-06-17T19:16:24.579Z,101283.70
2018-06-17T19:18:33.063Z,101286.80
2018-06-17T19:20:39.911Z,101290.77
2018-06-17T19:22:45.307Z,101288.79
2018-06-17T19:24:50.276Z,101284.40
2018-06-17T19:26:55.942Z,101284.63
2018-06-17T19:29:01.492Z,101283.41
2018-06-17T19:31:06.531Z,101286.95
2018-06-17T19:33:11.599Z,101290.81
2018-06-17T19:35:16.831Z,101290.73
2018-06-17T19:37:21.910Z,101296.44
2018-06-17T19:39:27.941Z,101296.16
2018-06-17T19:41:33.166Z,101297.65
2018-06-17T19:43:39.853Z,101298.13
2018-06-17T19:45:45.959Z,101301.80
2018-06-17T19:47:54.786Z,101280.69
2018-06-17T19:50:06.603Z,101300.67
2018-06-17T19:52:16.681Z,101302.95
2018-06-17T19:54:27.897Z,101294.58
2018-06-17T19:56:38.739Z,101297.59
2018-06-17T19:58:50.168Z,101302.34
2018-06-17T20:00:58.859Z,101282.38
2018-06-17T20:03:07.119Z,101262.12
2018-06-17T20:05:17.952Z,101301.43
2018-06-17T20:07:28.291Z,101307.63
2018-06-17T20:09:35.159Z,101305.69
2018-06-17T20:11:42.426Z,101304.11
2018-06-17T20:13:50.470Z,101306.06
2018-06-17T20:15:56.255Z,101312.44
2018-06-17T20:18:03.412Z,101307.03
2018-06-17T20:20:09.698Z,101311.13
2018-06-17T20:22:16.287Z,101307.23
2018-06-17T20:24:22.606Z,101309.66
2018-06-17T20:26:31.101Z,101311.13
2018-06-17T20:28:38.194Z,101302.20
2018-06-17T20:30:45.237Z,101308.16
2018-06-17T20:32:55.730Z,101295.77
2018-06-17T20:35:07.635Z,101307.47
2018-06-17T20:37:18.034Z,101316.83
2018-06-17T20:39:28.489Z,101316.33
2018-06-17T20:41:39.945Z,101323.92
2018-06-17T20:43:51.353Z,101321.30
2018-06-17T20:45:56.224Z,101323.84
2018-06-17T20:48:01.124Z,101326.15
2018-06-17T20:50:06.772Z,101328.66
2018-06-17T20:52:11.925Z,101331.00
2018-06-17T20:54:17.163Z,101291.52
2018-06-17T20:56:22.213Z,101243.69
2018-06-17T20:58:27.163Z,101140.12
2018-06-17T21:00:32.264Z,101334.84
2018-06-17T21:02:37.307Z,101318.36
2018-06-17T21:04:42.566Z,101314.02
2018-06-17T21:06:47.587Z,101324.47
2018-06-17T21:08:53.539Z,101320.83
2018-06-17T21:10:59.926Z,101316.44
2018-06-17T21:13:05.802Z,101318.02
2018-06-17T21:15:18.014Z,101318.77
2018-06-17T21:17:23.788Z,101322.19
2018-06-17T21:19:33.882Z,101316.50
2018-06-17T21:21:43.794Z,101302.31
2018-06-17T21:23:53.758Z,101314.56
2018-06-17T21:26:03.520Z,101317.02
2018-06-17T21:28:08.707Z,101317.99
2018-06-17T21:30:13.643Z,101321.97
2018-06-17T21:32:18.478Z,101323.31
2018-06-17T21:34:24.342Z,101325.44
2018-06-17T21:36:29.135Z,101325.91
2018-06-17T21:38:34.265Z,101321.14
2018-06-17T21:40:39.176Z,101317.38
2018-06-17T21:42:43.959Z,101319.42
2018-06-17T21:44:48.715Z,101325.39
2018-06-17T21:46:53.909Z,101322.39
2018-06-17T21:48:58.749Z,101318.50
2018-06-17T21:51:03.793Z,101294.82
2018-06-17T21:53:08.724Z,101321.05
2018-06-17T21:55:13.554Z,101322.30
2018-06-17T21:57:18.399Z,101306.44
2018-06-17T21:59:23.349Z,101292.33
2018-06-17T22:01:28.204Z,101323.96
2018-06-17T22:03:32.934Z,101234.73
2018-06-17T22:05:37.800Z,101280.97
2018-06-17T22:07:47.524Z,101303.05
2018-06-17T22:09:57.381Z,101297.32
2018-06-17T22:13:08.426Z,101310.55
2018-06-17T22:15:18.371Z,101314.11
2018-06-17T22:17:28.111Z,101315.31
2018-06-17T22:19:32.949Z,101302.81
2018-06-17T22:21:37.666Z,101321.47
2018-06-17T22:23:42.585Z,101319.16
2018-06-17T22:25:48.126Z,101322.16
2018-06-17T22:27:53.667Z,101320.54
2018-06-17T22:29:59.748Z,101329.23
2018-06-17T22:32:04.897Z,101330.95
2018-06-17T22:34:10.031Z,101329.52
2018-06-17T22:36:15.379Z,101324.38
2018-06-17T22:38:19.927Z,101329.70
2018-06-17T22:40:24.924Z,101333.41
2018-06-17T22:42:29.847Z,101316.34
2018-06-17T22:44:34.664Z,101330.31
2018-06-17T22:46:39.518Z,101331.94
2018-06-17T22:48:44.157Z,101330.08
2018-06-17T22:50:48.912Z,101334.01
2018-06-17T22:53:10.050Z,101333.04
2018-06-17T22:55:14.709Z,101338.54
2018-06-17T22:57:24.535Z,101338.87
2018-06-17T22:59:34.385Z,101343.89
2018-06-17T23:01:44.142Z,101349.19
2018-06-17T23:03:54.190Z,101317.40
2018-06-17T23:06:04.010Z,101343.58
2018-06-17T23:08:13.825Z,101347.34
2018-06-17T23:10:18.511Z,101345.39
2018-06-17T23:12:23.397Z,101348.12
2018-06-17T23:14:28.086Z,101351.08
2018-06-17T23:16:32.981Z,101310.19
2018-06-17T23:18:37.895Z,101286.25
2018-06-17T23:20:42.663Z,101342.72
2018-06-17T23:22:47.553Z,101346.27
2018-06-17T23:24:55.373Z,101353.54
2018-06-17T23:27:00.404Z,101250.77
2018-06-17T23:29:05.163Z,101353.58
2018-06-17T23:31:10.304Z,101355.37
2018-06-17T23:33:15.168Z,101347.06
2018-06-17T23:35:20.177Z,101352.56
2018-06-17T23:37:25.096Z,101211.66
2018-06-17T23:39:30.282Z,101179.48
2018-06-17T23:41:35.461Z,101357.09
2018-06-17T23:43:40.896Z,101323.66
2018-06-17T23:45:51.016Z,101345.16
2018-06-17T23:48:01.084Z,101173.24
2018-06-17T23:50:11.164Z,101348.44
2018-06-17T23:52:21.083Z,101354.03
2018-06-17T23:54:30.873Z,101272.45
2018-06-17T23:56:35.776Z,101366.91
2018-06-17T23:58:40.856Z,101354.88
